Time;durP1;ratioP1;P1;durP2;ratioP2;P2;SDS_P1;SDS_P2;PMS_P1;PMS_P2;Temp;Humidity;BMP_temperature;BMP_pressure;BME280_temperature;BME280_humidity;BME280_pressure;Samples;Min_cycle;Max_cycle;Signal;HPM_P1;HPM_P2
2022/01/30 00:01:59;;;;;;;6.10;5.00;;;;;;;-1.40;56.84;95347.25;5097662;28;20216;-64
2022/01/30 00:04:24;;;;;;;6.00;5.07;;;;;;;-1.39;57.12;95354.09;5114701;28;20284;-63
2022/01/30 00:06:50;;;;;;;7.80;5.27;;;;;;;-1.47;57.24;95351.88;5079890;28;20308;-64
2022/01/30 00:09:19;;;;;;;6.53;5.40;;;;;;;-1.49;57.01;95356.28;5081310;28;20215;-64
2022/01/30 00:11:50;;;;;;;6.00;4.77;;;;;;;-1.58;57.25;95336.03;5082150;28;20292;-64
2022/01/30 00:14:18;;;;;;;8.33;5.90;;;;;;;-1.39;57.16;95347.22;5082711;28;20248;-65
2022/01/30 00:16:43;;;;;;;7.60;5.83;;;;;;;-1.55;57.67;95351.41;5087731;28;20224;-64
2022/01/30 00:21:47;;;;;;;8.40;5.60;;;;;;;-1.65;58.02;95330.34;5095386;28;20276;-64
2022/01/30 00:24:18;;;;;;;7.67;5.40;;;;;;;-1.79;58.34;95325.84;5099379;28;20204;-64
2022/01/30 00:26:46;;;;;;;6.30;5.50;;;;;;;-1.75;58.58;95330.84;5093866;28;20228;-65
2022/01/30 00:29:12;;;;;;;8.30;6.30;;;;;;;-1.77;58.63;95318.00;5097949;28;20285;-63
2022/01/30 00:31:38;;;;;;;6.83;5.33;;;;;;;-1.92;59.12;95314.41;5110749;28;20217;-64
2022/01/30 00:34:04;;;;;;;7.53;5.60;;;;;;;-1.75;58.70;95320.53;5083039;28;20247;-64
2022/01/30 00:36:31;;;;;;;9.63;5.70;;;;;;;-1.72;58.40;95305.75;5096596;28;20220;-64
2022/01/30 00:38:57;;;;;;;8.40;6.00;;;;;;;-1.54;57.80;95308.41;5096946;28;20219;-64
2022/01/30 00:41:23;;;;;;;8.87;5.43;;;;;;;-1.60;58.03;95309.53;5098104;28;20239;-63
2022/01/30 00:43:48;;;;;;;7.53;5.77;;;;;;;-1.74;58.12;95299.00;5095701;28;20231;-64
2022/01/30 00:46:13;;;;;;;7.67;5.63;;;;;;;-1.57;58.24;95310.19;5098297;28;20246;-64
2022/01/30 00:48:39;;;;;;;8.57;5.70;;;;;;;-1.59;57.85;95311.19;5092609;28;20235;-63
2022/01/30 00:51:05;;;;;;;8.40;6.13;;;;;;;-1.63;57.50;95307.06;5098712;28;20283;-63
2022/01/30 00:53:30;;;;;;;8.67;6.23;;;;;;;-1.85;57.74;95291.75;5114329;28;20220;-64
2022/01/30 00:55:56;;;;;;;12.40;6.77;;;;;;;-1.95;58.02;95288.78;5082564;28;20240;-64
2022/01/30 00:58:21;;;;;;;10.10;6.23;;;;;;;-1.81;58.58;95296.72;5089538;28;20223;-64
2022/01/30 01:00:47;;;;;;;10.57;6.80;;;;;;;-1.90;58.39;95286.81;5099975;28;20223;-64
2022/01/30 01:03:12;;;;;;;9.03;6.70;;;;;;;-2.04;58.49;95279.69;5095853;28;20250;-63
2022/01/30 01:05:38;;;;;;;9.17;7.50;;;;;;;-2.16;59.20;95285.44;5096240;28;20219;-63
2022/01/30 01:08:14;;;;;;;11.77;7.43;;;;;;;-2.27;59.95;95269.63;5083693;28;20236;-64
2022/01/30 01:10:54;;;;;;;10.47;6.47;;;;;;;-2.14;59.15;95257.81;5080790;28;20235;-63
2022/01/30 01:24:04;;;;;;;7.07;5.73;;;;;;;-1.97;59.02;95262.22;5097949;28;20188;-64
2022/01/30 01:26:29;;;;;;;7.70;5.43;;;;;;;-1.88;58.26;95248.09;5092795;28;20231;-63
2022/01/30 01:28:55;;;;;;;8.33;4.90;;;;;;;-2.03;58.57;95232.44;5095396;28;20228;-64
2022/01/30 01:31:21;;;;;;;7.10;5.93;;;;;;;-2.02;58.05;95235.84;5096814;28;20227;-63
2022/01/30 01:36:19;;;;;;;12.73;9.43;;;;;;;-2.15;59.62;95224.44;5092588;28;20258;-62
2022/01/30 01:38:44;;;;;;;13.77;10.60;;;;;;;-2.12;59.65;95234.59;5102262;28;20291;-66
2022/01/30 01:41:11;;;;;;;14.80;11.57;;;;;;;-2.36;60.44;95209.03;5096209;28;20220;-64
2022/01/30 01:43:38;;;;;;;16.90;11.63;;;;;;;-2.33;60.74;95210.63;5096269;28;20222;-63
2022/01/30 01:46:11;;;;;;;14.33;10.37;;;;;;;-2.28;60.34;95221.56;5097377;28;20264;-64
2022/01/30 01:48:37;;;;;;;13.73;10.27;;;;;;;-2.24;60.09;95223.94;5097186;28;20246;-63
2022/01/30 01:51:06;;;;;;;11.43;9.73;;;;;;;-2.44;60.48;95203.38;5096859;28;20283;-63
2022/01/30 01:53:33;;;;;;;13.53;10.20;;;;;;;-2.40;60.41;95204.94;5099514;28;20265;-64
2022/01/30 01:55:58;;;;;;;13.60;10.43;;;;;;;-2.59;60.76;95214.38;5092967;28;20216;-65
2022/01/30 01:58:25;;;;;;;15.50;11.83;;;;;;;-2.64;60.65;95211.19;5090833;28;20251;-64
2022/01/30 02:00:51;;;;;;;12.97;10.27;;;;;;;-2.64;60.53;95206.88;5076262;28;20224;-66
2022/01/30 02:03:18;;;;;;;16.23;12.03;;;;;;;-2.71;60.40;95201.13;5074988;28;20266;-63
2022/01/30 02:05:50;;;;;;;17.17;12.13;;;;;;;-2.72;60.51;95202.06;5098699;28;20224;-64
2022/01/30 02:08:29;;;;;;;14.93;11.70;;;;;;;-2.85;60.88;95187.22;5100333;28;20266;-65
2022/01/30 02:27:15;;;;;;;14.37;10.90;;;;;;;-3.05;61.72;95188.06;5055012;28;20233;-65
2022/01/30 02:29:41;;;;;;;13.90;10.97;;;;;;;-3.15;62.30;95188.47;5071085;28;20246;-64
2022/01/30 02:32:07;;;;;;;12.97;10.03;;;;;;;-2.96;61.91;95185.13;5046799;28;20240;-63
2022/01/30 02:34:32;;;;;;;13.03;10.20;;;;;;;-2.93;61.78;95174.69;5050641;28;20221;-62
2022/01/30 02:36:59;;;;;;;13.50;10.13;;;;;;;-3.09;62.04;95168.53;5058668;28;20284;-63
2022/01/30 02:39:25;;;;;;;13.40;10.00;;;;;;;-3.17;62.16;95164.53;5058224;28;20237;-64
2022/01/30 02:41:52;;;;;;;15.13;10.20;;;;;;;-3.06;62.53;95161.50;5056369;28;20249;-63
2022/01/30 02:46:56;;;;;;;14.37;10.07;;;;;;;-2.98;62.19;95151.72;5065035;28;20232;-64
2022/01/30 02:52:01;;;;;;;13.00;9.83;;;;;;;-3.06;62.36;95140.09;5071708;28;20210;-63
2022/01/30 02:54:29;;;;;;;15.83;10.37;;;;;;;-3.09;62.32;95145.38;5078567;28;20205;-63
2022/01/30 02:56:55;;;;;;;13.33;9.83;;;;;;;-3.35;62.69;95137.88;5063182;28;20225;-63
2022/01/30 02:59:21;;;;;;;14.07;9.90;;;;;;;-3.17;62.66;95146.53;5076741;28;20216;-64
2022/01/30 03:01:46;;;;;;;13.40;10.33;;;;;;;-3.26;62.60;95146.94;5079345;28;20299;-63
2022/01/30 03:04:12;;;;;;;14.47;9.83;;;;;;;-3.38;62.77;95132.03;5089412;28;20235;-63
2022/01/30 03:06:38;;;;;;;16.67;10.57;;;;;;;-3.42;62.96;95133.06;5097523;28;20213;-63
2022/01/30 03:09:06;;;;;;;12.57;9.87;;;;;;;-3.50;63.05;95123.13;5101656;28;20215;-66
2022/01/30 03:11:32;;;;;;;16.37;10.10;;;;;;;-3.55;63.35;95125.03;5101716;28;20216;-66
2022/01/30 03:13:57;;;;;;;25.27;12.57;;;;;;;-3.56;63.29;95133.63;5094306;28;20334;-65
2022/01/30 03:16:23;;;;;;;16.93;10.93;;;;;;;-3.65;63.41;95134.88;5098583;28;20227;-65
2022/01/30 03:18:49;;;;;;;13.50;9.63;;;;;;;-3.43;63.07;95128.81;5100409;28;20239;-65
2022/01/30 03:21:15;;;;;;;12.90;9.37;;;;;;;-3.45;62.19;95133.19;5118743;28;20199;-63
2022/01/30 03:23:41;;;;;;;12.60;9.50;;;;;;;-3.42;61.93;95145.91;5101535;28;20220;-63
2022/01/30 03:26:07;;;;;;;11.93;9.40;;;;;;;-3.58;62.33;95132.88;5098354;28;20228;-64
2022/01/30 03:28:33;;;;;;;13.27;10.37;;;;;;;-3.38;62.03;95132.03;5098129;28;20235;-65
2022/01/30 03:31:03;;;;;;;12.43;9.70;;;;;;;-3.43;61.96;95129.66;5103123;28;20223;-64
2022/01/30 03:33:29;;;;;;;16.30;10.00;;;;;;;-3.29;61.38;95126.47;5097790;28;20215;-63
2022/01/30 03:35:55;;;;;;;11.87;9.40;;;;;;;-3.17;60.98;95131.13;5101683;28;20215;-65
2022/01/30 03:38:22;;;;;;;12.17;9.17;;;;;;;-3.00;60.69;95142.41;5084496;28;20273;-64
2022/01/30 03:40:48;;;;;;;13.60;11.67;;;;;;;-3.03;60.35;95139.97;5079616;28;20244;-63
2022/01/30 03:43:14;;;;;;;11.57;10.10;;;;;;;-3.13;60.63;95134.38;5077836;28;20276;-63
2022/01/30 03:45:41;;;;;;;14.23;9.87;;;;;;;-3.23;60.66;95140.84;5082826;28;20228;-64
2022/01/30 03:48:07;;;;;;;12.87;9.83;;;;;;;-3.34;61.06;95136.16;5082327;28;20268;-63
2022/01/30 03:50:33;;;;;;;12.87;9.63;;;;;;;-3.39;61.37;95123.50;5094130;28;20235;-62
2022/01/30 03:52:59;;;;;;;12.57;8.83;;;;;;;-3.43;61.59;95139.94;5097895;28;20223;-64
2022/01/30 03:55:25;;;;;;;11.07;9.03;;;;;;;-3.55;62.09;95140.47;5088451;28;20269;-62
2022/01/30 03:57:51;;;;;;;12.67;9.10;;;;;;;-3.59;62.40;95139.72;5077168;28;20243;-64
2022/01/30 04:00:16;;;;;;;11.60;9.20;;;;;;;-3.52;61.92;95134.38;5098549;28;20227;-63
2022/01/30 04:02:42;;;;;;;10.67;8.40;;;;;;;-3.60;62.29;95132.09;5099884;28;20283;-64
2022/01/30 04:05:08;;;;;;;10.40;8.33;;;;;;;-3.84;62.26;95110.84;5115098;28;20232;-64
2022/01/30 04:07:34;;;;;;;11.30;8.20;;;;;;;-3.73;62.63;95116.34;5090342;28;20239;-63
2022/01/30 04:10:01;;;;;;;10.43;7.83;;;;;;;-3.60;61.50;95125.22;5097737;28;20230;-62
2022/01/30 04:12:27;;;;;;;10.53;7.17;;;;;;;-3.61;61.33;95120.13;5098034;28;20211;-62
2022/01/30 04:14:53;;;;;;;9.23;7.50;;;;;;;-3.66;60.96;95115.22;5096076;28;20227;-64
2022/01/30 04:17:19;;;;;;;11.80;7.23;;;;;;;-3.61;60.63;95122.72;5094153;28;20238;-63
2022/01/30 04:19:45;;;;;;;8.70;7.27;;;;;;;-3.74;60.97;95118.97;5094521;28;20243;-63
2022/01/30 04:22:11;;;;;;;8.77;7.20;;;;;;;-3.75;61.13;95105.31;5094696;28;20220;-62
2022/01/30 04:24:37;;;;;;;12.13;8.27;;;;;;;-3.92;61.35;95093.16;5097697;28;20294;-63
2022/01/30 04:27:02;;;;;;;11.20;7.87;;;;;;;-3.90;61.50;95082.81;5098474;28;20304;-62
2022/01/30 04:29:28;;;;;;;9.37;7.93;;;;;;;-3.81;61.19;95073.00;5097692;28;20216;-63
2022/01/30 04:31:54;;;;;;;8.87;7.53;;;;;;;-3.83;60.42;95054.22;5085880;28;20229;-63
2022/01/30 04:34:20;;;;;;;9.93;7.50;;;;;;;-3.88;61.31;95063.03;5085727;28;20270;-63
2022/01/30 04:40:16;;;;;;;10.97;8.03;;;;;;;-4.16;61.99;95047.94;5056773;28;20213;-63
2022/01/30 04:58:48;;;;;;;12.83;8.77;;;;;;;-3.58;61.80;95048.91;5053794;28;20297;-61
2022/01/30 05:05:11;;;;;;;12.63;9.57;;;;;;;-3.95;63.00;95075.31;5027704;28;20334;-62
2022/01/30 05:09:29;;;;;;;13.40;9.17;;;;;;;-3.62;62.23;95069.66;5040160;28;20222;-62
2022/01/30 05:11:55;;;;;;;13.77;8.87;;;;;;;-3.51;62.08;95056.34;5039612;28;20217;-63
2022/01/30 05:14:25;;;;;;;15.87;9.67;;;;;;;-3.42;61.54;95032.78;5040875;28;20221;-63
2022/01/30 05:16:51;;;;;;;10.80;8.33;;;;;;;-3.36;61.13;95014.53;5041164;28;20229;-62
2022/01/30 05:19:17;;;;;;;13.03;8.67;;;;;;;-3.28;60.64;95009.88;5043547;28;20254;-64
2022/01/30 05:21:43;;;;;;;14.93;8.27;;;;;;;-3.19;60.69;94980.34;5042196;28;20213;-62
2022/01/30 05:24:09;;;;;;;14.50;9.50;;;;;;;-3.25;60.63;94985.78;5044264;28;20205;-62
2022/01/30 05:26:40;;;;;;;11.63;8.70;;;;;;;-3.36;60.54;94966.53;5041702;28;20233;-62
2022/01/30 05:29:06;;;;;;;12.03;8.50;;;;;;;-3.32;60.90;94969.78;5043616;28;20229;-62
2022/01/30 05:31:31;;;;;;;12.87;8.37;;;;;;;-3.30;60.18;94960.25;5059237;28;20454;-63
2022/01/30 05:33:57;;;;;;;10.73;7.60;;;;;;;-3.33;60.18;94960.41;5058724;28;20217;-64
2022/01/30 05:36:23;;;;;;;10.93;7.90;;;;;;;-3.39;60.45;94983.84;5059463;28;20213;-62
2022/01/30 05:38:50;;;;;;;11.00;8.10;;;;;;;-3.42;60.61;94981.38;5083775;28;20221;-62
2022/01/30 05:41:16;;;;;;;16.10;8.03;;;;;;;-3.40;60.34;94982.16;5094031;28;20212;-63
2022/01/30 05:43:42;;;;;;;12.80;8.53;;;;;;;-3.25;60.44;95002.03;5093610;28;20220;-63
2022/01/30 05:46:14;;;;;;;10.03;7.57;;;;;;;-3.12;59.78;95013.44;5093219;28;20215;-64
2022/01/30 05:48:41;;;;;;;10.60;8.10;;;;;;;-2.94;59.70;95044.34;5092682;28;20230;-62
2022/01/30 05:51:06;;;;;;;11.27;8.07;;;;;;;-2.96;60.20;95038.47;5100912;28;20291;-63
2022/01/30 05:53:32;;;;;;;11.03;8.37;;;;;;;-3.00;60.55;95026.63;5096472;28;20216;-62
2022/01/30 05:55:58;;;;;;;13.20;9.00;;;;;;;-2.90;60.29;95022.75;5095231;28;20231;-62
2022/01/30 05:58:23;;;;;;;12.57;8.80;;;;;;;-2.81;60.25;95024.88;5099791;28;20215;-62
2022/01/30 06:00:48;;;;;;;14.50;9.67;;;;;;;-2.90;60.66;95022.75;5116777;28;20233;-63
2022/01/30 06:03:14;;;;;;;14.30;9.33;;;;;;;-2.70;60.00;95017.50;5115615;28;20196;-64
2022/01/30 06:05:40;;;;;;;10.57;8.27;;;;;;;-2.79;60.07;95006.81;5093951;28;20243;-64
2022/01/30 06:08:13;;;;;;;13.27;8.80;;;;;;;-2.81;60.54;95011.19;5085871;28;20220;-63
2022/01/30 06:10:38;;;;;;;12.47;9.03;;;;;;;-2.63;59.79;95001.75;5077815;28;20227;-63
2022/01/30 06:13:04;;;;;;;11.47;8.17;;;;;;;-2.55;59.24;95002.22;5082428;28;20212;-63
2022/01/30 06:15:29;;;;;;;12.57;8.20;;;;;;;-2.56;59.27;94985.13;5093467;28;20334;-65
2022/01/30 06:17:55;;;;;;;10.30;7.93;;;;;;;-2.58;59.22;94974.06;5096273;28;20200;-65
2022/01/30 06:20:21;;;;;;;12.20;8.77;;;;;;;-2.73;58.91;94957.59;5099152;28;20281;-62
2022/01/30 06:22:46;;;;;;;10.57;7.97;;;;;;;-2.58;58.74;94963.78;5112016;28;20228;-62
2022/01/30 06:25:13;;;;;;;10.73;7.67;;;;;;;-2.76;58.75;94948.28;5083683;28;20220;-63
2022/01/30 06:27:38;;;;;;;12.20;8.80;;;;;;;-2.63;58.52;94960.59;5095632;28;20208;-62
2022/01/30 06:30:06;;;;;;;12.27;8.47;;;;;;;-2.64;58.73;94959.75;5101657;28;20203;-65
2022/01/30 06:32:31;;;;;;;12.97;8.77;;;;;;;-2.62;58.66;94954.50;5100220;28;20229;-63
2022/01/30 06:34:57;;;;;;;13.07;8.60;;;;;;;-2.63;58.71;94951.13;5116712;28;20218;-63
2022/01/30 06:37:22;;;;;;;16.47;10.60;;;;;;;-2.58;58.04;94944.00;5097936;28;20212;-63
2022/01/30 06:39:48;;;;;;;14.30;9.10;;;;;;;-2.46;57.97;94942.56;5099960;28;20231;-63
2022/01/30 06:42:13;;;;;;;14.13;10.20;;;;;;;-2.50;58.16;94951.34;5102166;28;20231;-64
2022/01/30 06:44:39;;;;;;;14.17;10.30;;;;;;;-2.48;57.99;94962.41;5097587;28;20216;-63
2022/01/30 06:47:06;;;;;;;15.13;10.13;;;;;;;-2.40;58.04;94962.88;5095290;28;20232;-64
2022/01/30 06:49:31;;;;;;;14.47;8.97;;;;;;;-2.36;57.95;94984.16;5098557;28;20228;-61
2022/01/30 06:51:57;;;;;;;13.40;9.40;;;;;;;-2.40;59.17;94998.94;5102336;28;20269;-62
2022/01/30 06:54:23;;;;;;;14.87;9.70;;;;;;;-2.34;58.74;94987.50;5101732;28;20204;-64
2022/01/30 06:56:48;;;;;;;13.03;9.03;;;;;;;-2.19;58.46;94968.72;5098631;28;20211;-62
2022/01/30 06:59:14;;;;;;;14.00;9.60;;;;;;;-2.26;58.63;94967.34;5101603;28;20215;-63
2022/01/30 07:01:39;;;;;;;16.40;9.93;;;;;;;-2.08;58.31;94973.34;5104041;28;20207;-63
2022/01/30 07:04:05;;;;;;;14.30;9.80;;;;;;;-2.18;58.17;94948.94;5099897;28;20223;-63
2022/01/30 07:06:30;;;;;;;12.30;9.10;;;;;;;-2.13;58.13;94946.97;5098853;28;20216;-63
2022/01/30 07:08:56;;;;;;;10.60;8.60;;;;;;;-1.92;57.21;94957.94;5082243;28;20208;-62
2022/01/30 07:11:21;;;;;;;11.60;8.50;;;;;;;-1.96;56.79;94952.09;5079260;28;20217;-63
2022/01/30 07:13:47;;;;;;;13.30;8.73;;;;;;;-1.98;57.20;94943.59;5079867;28;20231;-62
2022/01/30 07:16:13;;;;;;;13.57;8.57;;;;;;;-1.91;57.04;94950.09;5085520;28;20224;-62
2022/01/30 07:18:38;;;;;;;12.53;8.90;;;;;;;-2.01;57.61;94954.06;5098570;28;20297;-63
2022/01/30 07:21:07;;;;;;;13.77;8.20;;;;;;;-1.81;57.26;94960.78;5083058;28;20205;-64
2022/01/30 07:23:33;;;;;;;12.83;8.57;;;;;;;-1.81;57.05;94956.47;5077955;28;20217;-64
2022/01/30 07:25:58;;;;;;;9.83;7.90;;;;;;;-1.75;56.97;94950.16;5090260;28;20273;-64
2022/01/30 07:28:24;;;;;;;10.67;7.80;;;;;;;-1.69;56.30;94967.06;5089746;28;20212;-62
2022/01/30 07:30:49;;;;;;;8.97;7.20;;;;;;;-1.69;55.30;94960.13;5079895;28;20274;-63
2022/01/30 07:33:15;;;;;;;13.07;7.90;;;;;;;-1.52;54.60;94972.19;5079900;28;20201;-64
2022/01/30 07:35:41;;;;;;;10.13;7.53;;;;;;;-1.35;53.97;94968.69;5080385;28;20216;-65
2022/01/30 07:38:07;;;;;;;8.80;7.13;;;;;;;-1.39;54.19;94960.31;5074482;28;20285;-66
2022/01/30 07:40:34;;;;;;;9.93;7.53;;;;;;;-1.24;53.78;94968.13;5087560;28;20216;-64
2022/01/30 07:42:59;;;;;;;10.07;7.60;;;;;;;-1.27;54.21;94971.72;5100478;28;20265;-67
2022/01/30 07:45:25;;;;;;;11.40;8.43;;;;;;;-1.16;53.68;94987.44;5096237;28;20189;-66
2022/01/30 07:47:51;;;;;;;12.87;8.60;;;;;;;-1.16;54.01;94974.53;5099032;28;20274;-63
2022/01/30 07:50:16;;;;;;;13.03;8.30;;;;;;;-1.26;54.31;94967.38;5100648;28;20236;-64
2022/01/30 07:52:42;;;;;;;13.90;9.67;;;;;;;-1.37;54.96;94961.03;5098330;28;20328;-64
2022/01/30 07:55:08;;;;;;;13.17;9.63;;;;;;;-1.15;54.75;94977.94;5093400;28;20307;-65
2022/01/30 07:57:34;;;;;;;14.50;9.40;;;;;;;-0.97;54.30;94969.22;5097136;28;20196;-66
2022/01/30 08:00:00;;;;;;;13.23;9.87;;;;;;;-0.83;54.24;94965.03;5098567;28;20214;-66
2022/01/30 08:02:25;;;;;;;14.03;9.50;;;;;;;-1.00;54.53;94948.75;5097260;28;20305;-65
2022/01/30 08:04:52;;;;;;;13.00;9.80;;;;;;;-1.13;55.08;94937.41;5095807;28;20305;-64
2022/01/30 08:07:18;;;;;;;13.67;10.47;;;;;;;-1.11;55.25;94940.75;5089127;28;20237;-63
2022/01/30 08:09:44;;;;;;;15.03;10.20;;;;;;;-1.10;55.55;94950.16;5079521;28;20268;-64
2022/01/30 08:12:10;;;;;;;15.80;10.63;;;;;;;-1.05;55.09;94934.44;5078301;28;20229;-65
2022/01/30 08:14:35;;;;;;;16.60;10.90;;;;;;;-0.78;53.79;94906.25;5078032;28;20293;-63
2022/01/30 08:17:01;;;;;;;15.37;10.07;;;;;;;-0.55;53.46;94913.53;5078673;28;20217;-65
2022/01/30 08:19:27;;;;;;;18.20;10.70;;;;;;;-0.19;52.39;94903.75;5084687;28;20215;-64
2022/01/30 08:21:53;;;;;;;15.17;10.50;;;;;;;-0.23;52.10;94921.19;5095642;28;20235;-63
2022/01/30 08:24:19;;;;;;;14.10;10.63;;;;;;;-0.13;51.98;94914.56;5076951;28;20216;-65
2022/01/30 08:26:45;;;;;;;13.10;10.13;;;;;;;-0.07;51.90;94919.38;5097356;28;20230;-63
2022/01/30 08:29:11;;;;;;;20.00;10.87;;;;;;;0.01;51.98;94925.84;5099646;28;20224;-63
2022/01/30 08:31:36;;;;;;;14.23;10.33;;;;;;;-0.07;51.84;94927.13;5096511;28;20220;-65
2022/01/30 08:34:02;;;;;;;14.37;10.10;;;;;;;-0.19;52.11;94911.50;5091744;28;20299;-64
2022/01/30 08:36:27;;;;;;;16.23;10.33;;;;;;;-0.25;51.92;94939.34;5079018;28;20271;-64
2022/01/30 08:38:53;;;;;;;16.23;10.93;;;;;;;-0.32;52.34;94934.63;5094793;28;20224;-64
2022/01/30 08:41:18;;;;;;;14.93;11.50;;;;;;;-0.31;52.41;94921.63;5095327;28;20261;-63
2022/01/30 08:43:44;;;;;;;19.20;11.27;;;;;;;-0.20;52.29;94938.28;5098471;28;20227;-64
2022/01/30 08:46:09;;;;;;;17.20;10.50;;;;;;;-0.40;52.85;94923.91;5098521;28;20208;-63
2022/01/30 08:48:35;;;;;;;15.30;11.47;;;;;;;-0.23;52.77;94934.94;5100197;28;20295;-63
2022/01/30 08:51:00;;;;;;;19.60;10.33;;;;;;;-0.18;52.95;94932.09;5095147;28;20208;-63
2022/01/30 08:53:26;;;;;;;17.23;11.80;;;;;;;-0.02;52.30;94930.28;5094008;28;20295;-63
2022/01/30 08:55:52;;;;;;;16.17;11.13;;;;;;;0.08;52.08;94938.34;5096819;28;20311;-63
2022/01/30 08:58:17;;;;;;;18.07;11.27;;;;;;;0.06;52.14;94939.34;5096398;28;20285;-63
2022/01/30 09:00:44;;;;;;;13.67;11.07;;;;;;;0.24;51.94;94943.41;5096076;28;20208;-63
2022/01/30 09:03:10;;;;;;;16.73;11.53;;;;;;;0.22;52.00;94935.75;5094483;28;20224;-63
2022/01/30 09:05:36;;;;;;;20.90;12.17;;;;;;;0.36;51.81;94937.50;5097821;28;20290;-64
2022/01/30 09:08:04;;;;;;;19.67;11.90;;;;;;;0.48;51.91;94940.28;5094983;28;20344;-65
2022/01/30 09:10:31;;;;;;;22.63;12.17;;;;;;;0.77;51.45;94941.91;5096932;28;20243;-64
2022/01/30 09:12:56;;;;;;;20.07;12.73;;;;;;;1.02;51.66;94935.22;5091968;28;20295;-64
2022/01/30 09:15:22;;;;;;;20.37;11.83;;;;;;;1.21;50.97;94911.59;5090426;28;20215;-65
2022/01/30 09:17:47;;;;;;;18.23;12.23;;;;;;;1.56;50.84;94924.88;5095812;28;20239;-65
2022/01/30 09:20:13;;;;;;;20.97;11.87;;;;;;;1.87;49.32;94915.91;5092392;28;20223;-65
2022/01/30 09:22:39;;;;;;;18.03;12.37;;;;;;;1.79;49.80;94923.34;5096658;28;20274;-66
2022/01/30 09:25:06;;;;;;;17.50;11.90;;;;;;;1.80;49.03;94937.16;5095430;28;20231;-64
2022/01/30 09:27:32;;;;;;;20.97;12.73;;;;;;;1.73;49.73;94923.75;5093611;28;20243;-65
2022/01/30 09:29:58;;;;;;;19.60;11.20;;;;;;;1.70;49.37;94927.38;5093430;28;20201;-63
2022/01/30 09:32:23;;;;;;;18.37;11.53;;;;;;;1.79;49.26;94909.56;5096483;28;20227;-62
2022/01/30 09:34:49;;;;;;;23.10;11.67;;;;;;;1.72;49.34;94883.22;5095489;28;20263;-62
2022/01/30 09:37:14;;;;;;;17.47;10.97;;;;;;;1.82;48.68;94880.84;5098058;28;20247;-63
2022/01/30 09:39:40;;;;;;;15.77;11.30;;;;;;;1.83;48.79;94866.97;5095662;28;20218;-66
2022/01/30 09:42:06;;;;;;;14.27;10.27;;;;;;;2.06;49.20;94865.38;5098458;28;20211;-62
2022/01/30 09:44:39;;;;;;;15.97;11.07;;;;;;;2.12;48.42;94859.81;5093397;28;20307;-63
2022/01/30 09:47:10;;;;;;;17.00;10.67;;;;;;;2.09;48.47;94855.66;5096612;28;20228;-62
2022/01/30 09:49:39;;;;;;;17.90;11.30;;;;;;;2.19;48.40;94840.28;5076042;28;20232;-62
2022/01/30 09:52:05;;;;;;;18.33;11.07;;;;;;;2.26;48.45;94823.38;5080349;28;20291;-61
2022/01/30 09:54:31;;;;;;;16.47;11.37;;;;;;;2.20;46.60;94819.44;5095765;28;20344;-61
2022/01/30 09:56:56;;;;;;;15.10;10.30;;;;;;;2.21;48.49;94838.41;5092760;28;20285;-61
2022/01/30 09:59:22;;;;;;;15.87;9.90;;;;;;;2.20;47.28;94810.81;5093445;28;20227;-62
2022/01/30 10:01:47;;;;;;;16.77;9.60;;;;;;;2.35;46.31;94796.78;5096918;28;20223;-61
2022/01/30 10:04:13;;;;;;;18.07;10.87;;;;;;;2.43;46.82;94794.50;5101723;28;20224;-61
2022/01/30 10:07:02;;;;;;;16.20;9.87;;;;;;;2.61;46.23;94804.50;5102112;28;20238;-65
2022/01/30 10:09:31;;;;;;;14.57;9.93;;;;;;;2.82;46.30;94781.38;5096765;28;20208;-61
2022/01/30 10:12:15;;;;;;;16.43;10.63;;;;;;;2.91;45.13;94788.47;5100518;28;20216;-62
2022/01/30 10:14:49;;;;;;;15.90;11.37;;;;;;;2.92;48.96;94779.75;5098919;28;20418;-63
2022/01/30 10:17:32;;;;;;;18.93;10.27;;;;;;;3.08;48.36;94788.09;5101844;28;20224;-63
2022/01/30 10:20:07;;;;;;;21.33;10.57;;;;;;;3.15;49.41;94787.63;5099009;28;20350;-64
2022/01/30 10:22:36;;;;;;;16.40;10.63;;;;;;;3.22;47.54;94799.25;5096969;28;20216;-62
2022/01/30 10:25:02;;;;;;;17.73;9.63;;;;;;;3.41;45.57;94798.72;5101671;28;20253;-62
2022/01/30 10:27:29;;;;;;;33.77;11.13;;;;;;;3.46;46.51;94794.84;5094723;28;20223;-62
2022/01/30 10:30:00;;;;;;;20.53;10.10;;;;;;;3.66;48.10;94821.97;5101252;28;20223;-61
2022/01/30 10:32:26;;;;;;;34.57;12.30;;;;;;;3.91;46.15;94805.31;5094992;28;20238;-69
2022/01/30 10:35:10;;;;;;;16.83;9.20;;;;;;;3.82;44.16;94789.56;5093878;28;20231;-61
2022/01/30 10:37:39;;;;;;;16.63;9.37;;;;;;;3.93;46.10;94764.41;5096378;28;20235;-63
2022/01/30 10:40:14;;;;;;;15.43;9.00;;;;;;;4.14;45.38;94777.56;5098376;28;20215;-63
2022/01/30 10:42:47;;;;;;;14.80;9.67;;;;;;;4.40;44.14;94764.28;5093767;28;20254;-64
2022/01/30 10:45:21;;;;;;;17.67;9.80;;;;;;;4.51;44.77;94751.22;5099555;28;20325;-63
2022/01/30 10:47:46;;;;;;;22.13;10.83;;;;;;;4.59;46.23;94748.03;5099822;28;20211;-65
2022/01/30 10:50:16;;;;;;;14.40;9.97;;;;;;;4.74;44.43;94725.97;5097764;28;20220;-64
2022/01/30 10:52:59;;;;;;;14.73;10.03;;;;;;;4.64;43.60;94725.88;5083907;28;20231;-64
2022/01/30 10:55:38;;;;;;;17.27;10.70;;;;;;;4.97;43.79;94725.88;5077402;28;20248;-63
2022/01/30 10:58:06;;;;;;;14.53;9.27;;;;;;;5.17;41.50;94722.47;5084959;28;20224;-62
2022/01/30 11:00:59;;;;;;;17.57;9.40;;;;;;;5.38;41.79;94722.50;5103294;28;20212;-63
2022/01/30 11:03:50;;;;;;;17.33;10.30;;;;;;;5.47;40.86;94726.09;5095005;28;20212;-61
2022/01/30 11:06:16;;;;;;;17.10;10.33;;;;;;;5.23;43.46;94715.94;5095335;28;20223;-62
2022/01/30 11:08:46;;;;;;;16.43;10.10;;;;;;;5.42;42.29;94726.47;5098070;28;20246;-60
2022/01/30 11:19:19;;;;;;;14.97;10.00;;;;;;;6.27;40.04;94677.59;5094771;28;20272;-62
2022/01/30 11:21:49;;;;;;;21.10;11.40;;;;;;;6.04;42.69;94674.34;5100843;28;20219;-64
2022/01/30 11:24:16;;;;;;;17.67;10.37;;;;;;;6.28;41.68;94668.78;5099902;28;20216;-63
2022/01/30 11:26:43;;;;;;;18.03;10.20;;;;;;;6.77;40.13;94674.91;5093770;28;20228;-63
2022/01/30 11:29:10;;;;;;;17.20;10.67;;;;;;;7.24;38.83;94669.78;5094993;28;20216;-63
2022/01/30 11:31:36;;;;;;;15.57;10.33;;;;;;;7.69;36.37;94671.75;5098566;28;20228;-62
2022/01/30 11:34:01;;;;;;;16.57;10.30;;;;;;;7.17;36.46;94668.72;5096595;28;20231;-65
2022/01/30 11:36:27;;;;;;;19.60;11.23;;;;;;;7.07;37.60;94661.69;5097066;28;20215;-63
2022/01/30 11:38:54;;;;;;;16.73;11.13;;;;;;;7.11;38.66;94661.41;5099296;28;20228;-63
2022/01/30 11:41:20;;;;;;;20.00;12.07;;;;;;;7.12;37.40;94663.09;5093233;28;20216;-63
2022/01/30 11:44:17;;;;;;;18.07;11.40;;;;;;;7.49;39.09;94674.44;5102886;28;20219;-63
2022/01/30 11:46:53;;;;;;;21.83;11.70;;;;;;;7.69;37.84;94669.97;5098804;28;20227;-63
2022/01/30 11:49:19;;;;;;;25.13;11.57;;;;;;;7.53;36.97;94663.69;5092290;28;20236;-64
2022/01/30 11:51:54;;;;;;;20.03;11.70;;;;;;;7.96;36.39;94660.50;5099261;28;20215;-62
2022/01/30 11:54:38;;;;;;;20.87;12.23;;;;;;;8.42;35.12;94647.47;5096641;28;20208;-62
2022/01/30 11:57:27;;;;;;;19.23;10.93;;;;;;;8.50;35.60;94626.59;5101903;28;20230;-62
2022/01/30 11:59:57;;;;;;;16.93;11.07;;;;;;;8.47;35.09;94630.34;5098387;28;20215;-63
2022/01/30 12:02:28;;;;;;;17.63;11.00;;;;;;;8.13;36.71;94617.03;5098419;28;20233;-63
2022/01/30 12:04:55;;;;;;;25.87;11.90;;;;;;;8.81;34.23;94625.25;5098479;28;20227;-63
2022/01/30 12:07:40;;;;;;;22.00;12.30;;;;;;;9.55;34.29;94630.25;5099354;28;20275;-63
2022/01/30 12:10:30;;;;;;;18.03;11.30;;;;;;;9.61;32.39;94637.50;5097780;28;20229;-64
2022/01/30 12:13:03;;;;;;;17.33;10.97;;;;;;;12.67;26.67;94632.81;5077398;28;20263;-64
2022/01/30 12:15:42;;;;;;;20.43;11.33;;;;;;;15.91;22.53;94633.00;5076884;28;20235;-64
2022/01/30 12:18:15;;;;;;;16.57;10.87;;;;;;;16.14;22.46;94622.09;5078506;28;20213;-64
2022/01/30 12:21:08;;;;;;;18.87;11.63;;;;;;;11.88;27.71;94603.84;5072460;28;20240;-63
2022/01/30 12:23:36;;;;;;;17.07;12.00;;;;;;;9.62;30.63;94618.97;5076655;28;20279;-63
2022/01/30 12:26:08;;;;;;;21.73;11.67;;;;;;;8.36;33.47;94607.75;5087463;28;20239;-63
2022/01/30 12:28:40;;;;;;;18.40;11.67;;;;;;;7.95;35.76;94607.31;5094563;28;20224;-63
2022/01/30 12:31:34;;;;;;;19.40;12.40;;;;;;;10.52;32.23;94592.22;5098705;28;20266;-63
2022/01/30 12:34:21;;;;;;;25.23;12.50;;;;;;;10.91;29.41;94578.47;5094755;28;20228;-63
2022/01/30 12:36:54;;;;;;;18.63;11.83;;;;;;;8.67;32.62;94594.34;5091588;28;20204;-63
2022/01/30 12:39:22;;;;;;;20.23;11.50;;;;;;;7.44;34.98;94599.97;5099183;28;20325;-62